sensor_id;sensor_type;location;lat;lon;timestamp;temperature;humidity
42227;DHT22;27892;52.378;13.122;2023-04-23T00:02:26;17.90;46.30
42227;DHT22;27892;52.378;13.122;2023-04-23T00:04:55;17.90;45.60
42227;DHT22;27892;52.378;13.122;2023-04-23T00:07:22;17.90;45.40
42227;DHT22;27892;52.378;13.122;2023-04-23T00:09:49;18.00;45.20
42227;DHT22;27892;52.378;13.122;2023-04-23T00:12:17;18.00;44.80
42227;DHT22;27892;52.378;13.122;2023-04-23T00:14:43;18.10;44.40
42227;DHT22;27892;52.378;13.122;2023-04-23T00:17:08;18.10;44.80
42227;DHT22;27892;52.378;13.122;2023-04-23T00:19:34;18.20;44.10
42227;DHT22;27892;52.378;13.122;2023-04-23T00:22:00;18.20;43.80
42227;DHT22;27892;52.378;13.122;2023-04-23T00:24:26;18.20;43.70
42227;DHT22;27892;52.378;13.122;2023-04-23T00:26:51;18.30;43.50
42227;DHT22;27892;52.378;13.122;2023-04-23T00:29:18;18.30;43.50
42227;DHT22;27892;52.378;13.122;2023-04-23T00:31:43;18.40;43.30
42227;DHT22;27892;52.378;13.122;2023-04-23T00:34:09;18.40;43.00
42227;DHT22;27892;52.378;13.122;2023-04-23T00:36:35;18.50;43.30
42227;DHT22;27892;52.378;13.122;2023-04-23T00:39:00;18.50;43.10
42227;DHT22;27892;52.378;13.122;2023-04-23T00:41:26;18.60;43.40
42227;DHT22;27892;52.378;13.122;2023-04-23T00:43:53;18.60;43.10
42227;DHT22;27892;52.378;13.122;2023-04-23T00:46:19;18.60;43.70
42227;DHT22;27892;52.378;13.122;2023-04-23T00:48:46;18.60;44.50
42227;DHT22;27892;52.378;13.122;2023-04-23T00:51:12;18.50;45.30
42227;DHT22;27892;52.378;13.122;2023-04-23T00:53:38;18.50;46.50
42227;DHT22;27892;52.378;13.122;2023-04-23T00:56:04;18.40;48.10
42227;DHT22;27892;52.378;13.122;2023-04-23T00:58:31;18.20;49.40
42227;DHT22;27892;52.378;13.122;2023-04-23T01:00:57;18.10;50.40
42227;DHT22;27892;52.378;13.122;2023-04-23T01:03:25;17.90;51.40
42227;DHT22;27892;52.378;13.122;2023-04-23T01:05:51;17.80;51.90
42227;DHT22;27892;52.378;13.122;2023-04-23T01:08:17;17.70;52.20
42227;DHT22;27892;52.378;13.122;2023-04-23T01:10:46;17.80;52.70
42227;DHT22;27892;52.378;13.122;2023-04-23T01:13:13;17.60;53.60
42227;DHT22;27892;52.378;13.122;2023-04-23T01:15:39;17.60;54.30
42227;DHT22;27892;52.378;13.122;2023-04-23T01:18:04;17.50;54.90
42227;DHT22;27892;52.378;13.122;2023-04-23T01:20:33;17.40;55.60
42227;DHT22;27892;52.378;13.122;2023-04-23T01:23:00;17.30;56.20
42227;DHT22;27892;52.378;13.122;2023-04-23T01:25:26;17.20;56.60
42227;DHT22;27892;52.378;13.122;2023-04-23T01:27:52;17.10;57.10
42227;DHT22;27892;52.378;13.122;2023-04-23T01:30:18;17.10;57.60
42227;DHT22;27892;52.378;13.122;2023-04-23T01:32:44;17.10;57.90
42227;DHT22;27892;52.378;13.122;2023-04-23T01:35:11;17.10;58.00
42227;DHT22;27892;52.378;13.122;2023-04-23T01:37:37;17.00;59.00
42227;DHT22;27892;52.378;13.122;2023-04-23T01:40:04;16.90;59.20
42227;DHT22;27892;52.378;13.122;2023-04-23T01:42:30;16.90;59.60
42227;DHT22;27892;52.378;13.122;2023-04-23T01:44:56;16.90;60.20
42227;DHT22;27892;52.378;13.122;2023-04-23T01:47:22;16.80;60.20
42227;DHT22;27892;52.378;13.122;2023-04-23T01:49:48;16.80;60.60
42227;DHT22;27892;52.378;13.122;2023-04-23T01:52:14;16.80;61.10
42227;DHT22;27892;52.378;13.122;2023-04-23T01:54:39;16.70;61.60
42227;DHT22;27892;52.378;13.122;2023-04-23T01:57:05;16.80;62.10
42227;DHT22;27892;52.378;13.122;2023-04-23T01:59:31;16.90;62.20
42227;DHT22;27892;52.378;13.122;2023-04-23T02:01:56;16.90;62.40
42227;DHT22;27892;52.378;13.122;2023-04-23T02:04:22;16.90;63.30
42227;DHT22;27892;52.378;13.122;2023-04-23T02:06:49;17.00;63.60
42227;DHT22;27892;52.378;13.122;2023-04-23T02:09:15;17.10;63.80
42227;DHT22;27892;52.378;13.122;2023-04-23T02:11:41;17.10;63.80
42227;DHT22;27892;52.378;13.122;2023-04-23T02:14:08;17.20;64.20
42227;DHT22;27892;52.378;13.122;2023-04-23T02:16:34;17.20;64.60
42227;DHT22;27892;52.378;13.122;2023-04-23T02:19:00;17.20;64.80
42227;DHT22;27892;52.378;13.122;2023-04-23T02:21:26;17.10;65.80
42227;DHT22;27892;52.378;13.122;2023-04-23T02:23:52;17.20;65.70
42227;DHT22;27892;52.378;13.122;2023-04-23T02:26:18;17.10;65.90
42227;DHT22;27892;52.378;13.122;2023-04-23T02:28:45;17.20;66.20
42227;DHT22;27892;52.378;13.122;2023-04-23T02:31:10;17.20;66.30
42227;DHT22;27892;52.378;13.122;2023-04-23T02:33:36;17.20;66.50
42227;DHT22;27892;52.378;13.122;2023-04-23T02:36:02;17.20;66.80
42227;DHT22;27892;52.378;13.122;2023-04-23T02:38:28;17.20;66.70
42227;DHT22;27892;52.378;13.122;2023-04-23T02:40:53;17.20;66.90
42227;DHT22;27892;52.378;13.122;2023-04-23T02:43:19;17.30;66.90
42227;DHT22;27892;52.378;13.122;2023-04-23T02:45:44;17.30;66.60
42227;DHT22;27892;52.378;13.122;2023-04-23T02:48:10;17.30;66.50
42227;DHT22;27892;52.378;13.122;2023-04-23T02:50:36;17.20;67.00
42227;DHT22;27892;52.378;13.122;2023-04-23T02:53:04;17.20;67.10
42227;DHT22;27892;52.378;13.122;2023-04-23T02:55:30;17.20;67.30
42227;DHT22;27892;52.378;13.122;2023-04-23T02:57:59;17.20;67.50
42227;DHT22;27892;52.378;13.122;2023-04-23T03:00:26;17.20;67.80
42227;DHT22;27892;52.378;13.122;2023-04-23T03:02:52;17.10;67.90
42227;DHT22;27892;52.378;13.122;2023-04-23T03:05:17;17.00;68.20
42227;DHT22;27892;52.378;13.122;2023-04-23T03:07:43;16.90;68.30
42227;DHT22;27892;52.378;13.122;2023-04-23T03:10:09;16.80;68.30
42227;DHT22;27892;52.378;13.122;2023-04-23T03:12:34;16.80;68.70
42227;DHT22;27892;52.378;13.122;2023-04-23T03:15:00;16.80;69.20
42227;DHT22;27892;52.378;13.122;2023-04-23T03:17:26;16.80;69.50
42227;DHT22;27892;52.378;13.122;2023-04-23T03:19:52;16.90;69.30
42227;DHT22;27892;52.378;13.122;2023-04-23T03:22:17;16.90;69.50
42227;DHT22;27892;52.378;13.122;2023-04-23T03:24:43;16.90;69.70
42227;DHT22;27892;52.378;13.122;2023-04-23T03:27:09;16.80;69.50
42227;DHT22;27892;52.378;13.122;2023-04-23T03:29:34;16.90;69.60
42227;DHT22;27892;52.378;13.122;2023-04-23T03:32:00;16.90;69.60
42227;DHT22;27892;52.378;13.122;2023-04-23T03:34:26;16.90;69.70
42227;DHT22;27892;52.378;13.122;2023-04-23T03:36:51;16.90;69.60
42227;DHT22;27892;52.378;13.122;2023-04-23T03:39:17;16.90;69.90
42227;DHT22;27892;52.378;13.122;2023-04-23T03:41:43;17.00;69.80
42227;DHT22;27892;52.378;13.122;2023-04-23T03:44:08;17.00;69.70
42227;DHT22;27892;52.378;13.122;2023-04-23T03:46:34;17.00;69.30
42227;DHT22;27892;52.378;13.122;2023-04-23T03:49:00;17.00;69.40
42227;DHT22;27892;52.378;13.122;2023-04-23T03:51:25;17.00;69.70
42227;DHT22;27892;52.378;13.122;2023-04-23T03:53:51;17.00;69.80
42227;DHT22;27892;52.378;13.122;2023-04-23T03:56:17;16.90;69.80
42227;DHT22;27892;52.378;13.122;2023-04-23T03:58:43;17.00;70.60
42227;DHT22;27892;52.378;13.122;2023-04-23T04:01:08;17.00;70.80
42227;DHT22;27892;52.378;13.122;2023-04-23T04:03:34;17.10;70.90
42227;DHT22;27892;52.378;13.122;2023-04-23T04:06:01;17.00;70.50
42227;DHT22;27892;52.378;13.122;2023-04-23T04:08:26;17.00;71.10
42227;DHT22;27892;52.378;13.122;2023-04-23T04:10:54;17.10;71.20
42227;DHT22;27892;52.378;13.122;2023-04-23T04:13:20;17.10;71.40
42227;DHT22;27892;52.378;13.122;2023-04-23T04:15:45;17.10;71.70
42227;DHT22;27892;52.378;13.122;2023-04-23T04:18:11;17.10;71.60
42227;DHT22;27892;52.378;13.122;2023-04-23T04:20:37;17.10;71.60
42227;DHT22;27892;52.378;13.122;2023-04-23T04:23:02;17.10;71.50
42227;DHT22;27892;52.378;13.122;2023-04-23T04:25:28;17.00;71.70
42227;DHT22;27892;52.378;13.122;2023-04-23T04:27:54;17.00;72.20
42227;DHT22;27892;52.378;13.122;2023-04-23T04:30:19;16.90;72.60
42227;DHT22;27892;52.378;13.122;2023-04-23T04:32:46;17.00;73.00
42227;DHT22;27892;52.378;13.122;2023-04-23T04:35:12;16.90;73.80
42227;DHT22;27892;52.378;13.122;2023-04-23T04:37:39;17.00;73.80
42227;DHT22;27892;52.378;13.122;2023-04-23T04:40:06;17.00;74.00
42227;DHT22;27892;52.378;13.122;2023-04-23T04:42:32;17.00;73.90
42227;DHT22;27892;52.378;13.122;2023-04-23T04:44:58;17.10;73.80
42227;DHT22;27892;52.378;13.122;2023-04-23T04:47:24;17.10;74.50
42227;DHT22;27892;52.378;13.122;2023-04-23T04:49:50;17.00;73.50
42227;DHT22;27892;52.378;13.122;2023-04-23T04:52:15;17.10;74.20
42227;DHT22;27892;52.378;13.122;2023-04-23T04:54:42;17.10;74.70
42227;DHT22;27892;52.378;13.122;2023-04-23T04:57:07;17.10;74.60
42227;DHT22;27892;52.378;13.122;2023-04-23T04:59:33;17.20;74.70
42227;DHT22;27892;52.378;13.122;2023-04-23T05:01:59;17.20;74.40
42227;DHT22;27892;52.378;13.122;2023-04-23T05:04:25;17.20;74.20
42227;DHT22;27892;52.378;13.122;2023-04-23T05:06:50;17.30;73.80
42227;DHT22;27892;52.378;13.122;2023-04-23T05:09:16;17.30;74.20
42227;DHT22;27892;52.378;13.122;2023-04-23T05:11:42;17.30;74.40
42227;DHT22;27892;52.378;13.122;2023-04-23T05:14:08;17.30;74.20
42227;DHT22;27892;52.378;13.122;2023-04-23T05:16:33;17.30;74.50
42227;DHT22;27892;52.378;13.122;2023-04-23T05:18:59;17.30;74.40
42227;DHT22;27892;52.378;13.122;2023-04-23T05:21:25;17.40;74.60
42227;DHT22;27892;52.378;13.122;2023-04-23T05:23:53;17.40;74.80
42227;DHT22;27892;52.378;13.122;2023-04-23T05:26:19;17.40;74.50
42227;DHT22;27892;52.378;13.122;2023-04-23T05:28:46;17.40;74.60
42227;DHT22;27892;52.378;13.122;2023-04-23T05:31:11;17.30;74.50
42227;DHT22;27892;52.378;13.122;2023-04-23T05:33:37;17.30;75.00
42227;DHT22;27892;52.378;13.122;2023-04-23T05:36:03;17.40;75.10
42227;DHT22;27892;52.378;13.122;2023-04-23T05:38:29;17.40;74.90
42227;DHT22;27892;52.378;13.122;2023-04-23T05:40:55;17.40;75.00
42227;DHT22;27892;52.378;13.122;2023-04-23T05:43:20;17.50;75.10
42227;DHT22;27892;52.378;13.122;2023-04-23T05:45:46;17.60;74.90
42227;DHT22;27892;52.378;13.122;2023-04-23T05:48:12;17.80;74.70
42227;DHT22;27892;52.378;13.122;2023-04-23T05:50:37;17.80;74.80
42227;DHT22;27892;52.378;13.122;2023-04-23T05:53:03;17.90;74.80
42227;DHT22;27892;52.378;13.122;2023-04-23T05:55:29;18.00;74.10
42227;DHT22;27892;52.378;13.122;2023-04-23T05:57:55;18.00;74.50
42227;DHT22;27892;52.378;13.122;2023-04-23T06:00:20;18.10;74.60
42227;DHT22;27892;52.378;13.122;2023-04-23T06:02:46;18.20;74.30
42227;DHT22;27892;52.378;13.122;2023-04-23T06:05:12;18.30;74.20
42227;DHT22;27892;52.378;13.122;2023-04-23T06:07:38;18.30;74.60
42227;DHT22;27892;52.378;13.122;2023-04-23T06:10:06;18.30;74.60
42227;DHT22;27892;52.378;13.122;2023-04-23T06:12:32;18.40;74.30
42227;DHT22;27892;52.378;13.122;2023-04-23T06:14:57;18.50;73.90
42227;DHT22;27892;52.378;13.122;2023-04-23T06:17:23;18.50;73.90
42227;DHT22;27892;52.378;13.122;2023-04-23T06:19:48;18.60;74.20
42227;DHT22;27892;52.378;13.122;2023-04-23T06:22:14;18.60;73.10
42227;DHT22;27892;52.378;13.122;2023-04-23T06:24:40;18.40;72.60
42227;DHT22;27892;52.378;13.122;2023-04-23T06:27:05;18.40;73.30
42227;DHT22;27892;52.378;13.122;2023-04-23T06:29:31;18.40;73.30
42227;DHT22;27892;52.378;13.122;2023-04-23T06:32:00;18.30;73.30
42227;DHT22;27892;52.378;13.122;2023-04-23T06:34:27;18.30;73.10
42227;DHT22;27892;52.378;13.122;2023-04-23T06:36:53;18.20;73.30
42227;DHT22;27892;52.378;13.122;2023-04-23T06:39:18;18.20;73.30
42227;DHT22;27892;52.378;13.122;2023-04-23T06:41:44;18.20;73.60
42227;DHT22;27892;52.378;13.122;2023-04-23T06:44:10;18.10;73.40
42227;DHT22;27892;52.378;13.122;2023-04-23T06:46:35;18.10;73.80
42227;DHT22;27892;52.378;13.122;2023-04-23T06:49:01;18.00;74.40
42227;DHT22;27892;52.378;13.122;2023-04-23T06:51:27;18.00;74.90
42227;DHT22;27892;52.378;13.122;2023-04-23T06:53:53;18.00;75.30
42227;DHT22;27892;52.378;13.122;2023-04-23T06:56:19;17.90;75.40
42227;DHT22;27892;52.378;13.122;2023-04-23T06:58:46;17.90;74.60
42227;DHT22;27892;52.378;13.122;2023-04-23T07:01:12;17.90;75.30
42227;DHT22;27892;52.378;13.122;2023-04-23T07:03:38;18.00;75.30
42227;DHT22;27892;52.378;13.122;2023-04-23T07:06:04;18.00;75.30
42227;DHT22;27892;52.378;13.122;2023-04-23T07:08:30;18.00;75.40
42227;DHT22;27892;52.378;13.122;2023-04-23T07:10:56;18.00;75.30
42227;DHT22;27892;52.378;13.122;2023-04-23T07:13:21;18.00;75.40
42227;DHT22;27892;52.378;13.122;2023-04-23T07:15:48;18.10;75.70
42227;DHT22;27892;52.378;13.122;2023-04-23T07:18:14;18.10;75.70
42227;DHT22;27892;52.378;13.122;2023-04-23T07:20:39;18.10;75.20
42227;DHT22;27892;52.378;13.122;2023-04-23T07:23:05;18.20;75.50
42227;DHT22;27892;52.378;13.122;2023-04-23T07:25:31;18.10;75.40
42227;DHT22;27892;52.378;13.122;2023-04-23T07:27:57;18.00;75.20
42227;DHT22;27892;52.378;13.122;2023-04-23T07:30:23;18.00;75.40
42227;DHT22;27892;52.378;13.122;2023-04-23T07:32:49;18.00;75.60
42227;DHT22;27892;52.378;13.122;2023-04-23T07:35:15;18.00;75.80
42227;DHT22;27892;52.378;13.122;2023-04-23T07:37:41;18.00;75.70
42227;DHT22;27892;52.378;13.122;2023-04-23T07:40:07;18.00;75.60
42227;DHT22;27892;52.378;13.122;2023-04-23T07:42:33;18.00;75.70
42227;DHT22;27892;52.378;13.122;2023-04-23T07:44:59;17.90;75.80
42227;DHT22;27892;52.378;13.122;2023-04-23T07:47:25;17.90;76.50
42227;DHT22;27892;52.378;13.122;2023-04-23T07:49:50;18.00;76.40
42227;DHT22;27892;52.378;13.122;2023-04-23T07:52:16;18.00;76.40
42227;DHT22;27892;52.378;13.122;2023-04-23T07:54:42;18.10;76.60
42227;DHT22;27892;52.378;13.122;2023-04-23T07:57:08;18.20;76.50
42227;DHT22;27892;52.378;13.122;2023-04-23T07:59:34;18.30;76.70
42227;DHT22;27892;52.378;13.122;2023-04-23T08:02:00;18.40;76.20
42227;DHT22;27892;52.378;13.122;2023-04-23T08:04:26;18.40;75.50
42227;DHT22;27892;52.378;13.122;2023-04-23T08:06:52;18.40;75.90
42227;DHT22;27892;52.378;13.122;2023-04-23T08:09:17;18.50;76.10
42227;DHT22;27892;52.378;13.122;2023-04-23T08:11:43;18.60;76.20
42227;DHT22;27892;52.378;13.122;2023-04-23T08:14:09;18.70;75.10
42227;DHT22;27892;52.378;13.122;2023-04-23T08:16:35;18.80;75.20
42227;DHT22;27892;52.378;13.122;2023-04-23T08:19:01;18.90;75.70
42227;DHT22;27892;52.378;13.122;2023-04-23T08:21:30;19.10;75.30
42227;DHT22;27892;52.378;13.122;2023-04-23T08:23:56;19.30;74.40
42227;DHT22;27892;52.378;13.122;2023-04-23T08:26:21;19.40;74.40
42227;DHT22;27892;52.378;13.122;2023-04-23T08:28:48;19.40;74.80
42227;DHT22;27892;52.378;13.122;2023-04-23T08:31:14;19.40;73.60
42227;DHT22;27892;52.378;13.122;2023-04-23T08:33:39;19.20;73.20
42227;DHT22;27892;52.378;13.122;2023-04-23T08:36:05;19.10;73.90
42227;DHT22;27892;52.378;13.122;2023-04-23T08:38:31;18.90;73.60
42227;DHT22;27892;52.378;13.122;2023-04-23T08:40:58;18.80;74.10
42227;DHT22;27892;52.378;13.122;2023-04-23T08:43:32;18.70;75.20
42227;DHT22;27892;52.378;13.122;2023-04-23T08:46:02;18.70;75.50
42227;DHT22;27892;52.378;13.122;2023-04-23T08:48:29;18.60;75.80
42227;DHT22;27892;52.378;13.122;2023-04-23T08:50:56;18.50;75.10
42227;DHT22;27892;52.378;13.122;2023-04-23T08:53:25;18.40;76.20
42227;DHT22;27892;52.378;13.122;2023-04-23T08:55:54;18.30;76.00
42227;DHT22;27892;52.378;13.122;2023-04-23T08:58:21;18.30;75.90
42227;DHT22;27892;52.378;13.122;2023-04-23T09:00:48;18.20;76.10
42227;DHT22;27892;52.378;13.122;2023-04-23T09:03:15;18.20;76.00
42227;DHT22;27892;52.378;13.122;2023-04-23T09:05:42;18.10;75.60
42227;DHT22;27892;52.378;13.122;2023-04-23T09:08:09;18.00;75.80
42227;DHT22;27892;52.378;13.122;2023-04-23T09:10:36;18.00;75.90
42227;DHT22;27892;52.378;13.122;2023-04-23T09:13:04;17.80;75.70
42227;DHT22;27892;52.378;13.122;2023-04-23T09:15:30;17.80;75.40
42227;DHT22;27892;52.378;13.122;2023-04-23T09:17:57;17.80;76.00
42227;DHT22;27892;52.378;13.122;2023-04-23T09:20:24;17.70;75.60
42227;DHT22;27892;52.378;13.122;2023-04-23T09:22:50;17.70;75.60
42227;DHT22;27892;52.378;13.122;2023-04-23T09:25:20;17.60;75.80
42227;DHT22;27892;52.378;13.122;2023-04-23T09:27:48;17.60;75.10
42227;DHT22;27892;52.378;13.122;2023-04-23T09:30:15;17.60;75.80
42227;DHT22;27892;52.378;13.122;2023-04-23T09:32:42;17.60;75.20
42227;DHT22;27892;52.378;13.122;2023-04-23T09:35:09;17.60;75.60
42227;DHT22;27892;52.378;13.122;2023-04-23T09:37:41;17.60;74.80
42227;DHT22;27892;52.378;13.122;2023-04-23T09:40:07;17.60;74.30
42227;DHT22;27892;52.378;13.122;2023-04-23T09:42:34;17.60;74.30
42227;DHT22;27892;52.378;13.122;2023-04-23T09:45:05;17.60;74.40
42227;DHT22;27892;52.378;13.122;2023-04-23T09:47:38;17.50;74.40
42227;DHT22;27892;52.378;13.122;2023-04-23T09:50:05;17.50;74.10
42227;DHT22;27892;52.378;13.122;2023-04-23T09:52:32;17.50;74.70
42227;DHT22;27892;52.378;13.122;2023-04-23T09:55:00;17.50;74.80
42227;DHT22;27892;52.378;13.122;2023-04-23T09:57:26;17.60;75.80
42227;DHT22;27892;52.378;13.122;2023-04-23T09:59:56;17.70;75.90
42227;DHT22;27892;52.378;13.122;2023-04-23T10:02:26;17.90;75.30
42227;DHT22;27892;52.378;13.122;2023-04-23T10:04:53;18.20;76.50
42227;DHT22;27892;52.378;13.122;2023-04-23T10:07:19;18.50;74.70
42227;DHT22;27892;52.378;13.122;2023-04-23T10:09:46;18.80;74.00
42227;DHT22;27892;52.378;13.122;2023-04-23T10:12:13;18.90;72.50
42227;DHT22;27892;52.378;13.122;2023-04-23T10:14:40;19.10;72.30
42227;DHT22;27892;52.378;13.122;2023-04-23T10:17:08;19.20;71.20
42227;DHT22;27892;52.378;13.122;2023-04-23T10:19:37;19.40;70.30
42227;DHT22;27892;52.378;13.122;2023-04-23T10:22:07;19.50;69.50
42227;DHT22;27892;52.378;13.122;2023-04-23T10:24:40;19.50;68.00
42227;DHT22;27892;52.378;13.122;2023-04-23T10:27:12;19.40;67.60
42227;DHT22;27892;52.378;13.122;2023-04-23T10:29:38;19.30;67.60
42227;DHT22;27892;52.378;13.122;2023-04-23T10:32:05;19.20;67.40
42227;DHT22;27892;52.378;13.122;2023-04-23T10:34:32;19.00;67.40
42227;DHT22;27892;52.378;13.122;2023-04-23T10:36:59;18.90;67.80
42227;DHT22;27892;52.378;13.122;2023-04-23T10:39:31;18.80;67.80
42227;DHT22;27892;52.378;13.122;2023-04-23T10:41:59;18.70;68.70
42227;DHT22;27892;52.378;13.122;2023-04-23T10:44:36;18.60;69.40
42227;DHT22;27892;52.378;13.122;2023-04-23T10:47:03;18.50;70.80
42227;DHT22;27892;52.378;13.122;2023-04-23T10:49:30;18.40;70.80
42227;DHT22;27892;52.378;13.122;2023-04-23T10:52:07;18.30;70.10
42227;DHT22;27892;52.378;13.122;2023-04-23T10:54:34;18.30;70.70
42227;DHT22;27892;52.378;13.122;2023-04-23T10:57:02;18.60;71.60
42227;DHT22;27892;52.378;13.122;2023-04-23T10:59:29;18.70;69.50
42227;DHT22;27892;52.378;13.122;2023-04-23T11:02:06;18.70;67.00
42227;DHT22;27892;52.378;13.122;2023-04-23T11:04:33;18.50;67.20
42227;DHT22;27892;52.378;13.122;2023-04-23T11:07:09;18.30;67.40
42227;DHT22;27892;52.378;13.122;2023-04-23T11:12:01;18.10;68.20
42227;DHT22;27892;52.378;13.122;2023-04-23T11:17:02;18.10;68.00
42227;DHT22;27892;52.378;13.122;2023-04-23T11:19:27;17.90;67.50
42227;DHT22;27892;52.378;13.122;2023-04-23T11:24:29;18.00;68.50
42227;DHT22;27892;52.378;13.122;2023-04-23T11:26:55;18.20;68.60
42227;DHT22;27892;52.378;13.122;2023-04-23T11:29:22;18.60;68.90
42227;DHT22;27892;52.378;13.122;2023-04-23T11:31:48;19.00;67.20
42227;DHT22;27892;52.378;13.122;2023-04-23T11:34:15;19.50;66.80
42227;DHT22;27892;52.378;13.122;2023-04-23T11:36:41;20.20;66.60
42227;DHT22;27892;52.378;13.122;2023-04-23T11:39:07;21.00;64.80
42227;DHT22;27892;52.378;13.122;2023-04-23T11:41:37;21.40;61.60
42227;DHT22;27892;52.378;13.122;2023-04-23T11:44:03;21.70;59.90
42227;DHT22;27892;52.378;13.122;2023-04-23T11:46:29;22.30;56.80
42227;DHT22;27892;52.378;13.122;2023-04-23T11:48:55;22.90;57.00
42227;DHT22;27892;52.378;13.122;2023-04-23T11:51:27;23.20;54.80
42227;DHT22;27892;52.378;13.122;2023-04-23T11:53:53;23.50;54.10
42227;DHT22;27892;52.378;13.122;2023-04-23T11:56:19;23.70;52.40
42227;DHT22;27892;52.378;13.122;2023-04-23T11:58:45;23.60;50.80
42227;DHT22;27892;52.378;13.122;2023-04-23T12:01:11;23.70;51.70
42227;DHT22;27892;52.378;13.122;2023-04-23T12:03:38;24.00;50.70
42227;DHT22;27892;52.378;13.122;2023-04-23T12:06:04;24.30;50.70
42227;DHT22;27892;52.378;13.122;2023-04-23T12:08:34;24.60;51.20
42227;DHT22;27892;52.378;13.122;2023-04-23T12:11:02;25.00;47.80
42227;DHT22;27892;52.378;13.122;2023-04-23T12:13:30;25.30;44.70
42227;DHT22;27892;52.378;13.122;2023-04-23T12:15:59;25.50;44.40
42227;DHT22;27892;52.378;13.122;2023-04-23T12:18:33;25.70;46.60
42227;DHT22;27892;52.378;13.122;2023-04-23T12:21:11;26.20;46.60
42227;DHT22;27892;52.378;13.122;2023-04-23T12:23:39;26.50;46.30
42227;DHT22;27892;52.378;13.122;2023-04-23T12:26:13;26.30;44.90
42227;DHT22;27892;52.378;13.122;2023-04-23T12:31:25;26.00;46.30
42227;DHT22;27892;52.378;13.122;2023-04-23T12:34:04;26.20;44.80
42227;DHT22;27892;52.378;13.122;2023-04-23T12:36:30;26.10;43.00
42227;DHT22;27892;52.378;13.122;2023-04-23T12:39:22;26.00;43.40
42227;DHT22;27892;52.378;13.122;2023-04-23T12:41:53;26.10;44.30
42227;DHT22;27892;52.378;13.122;2023-04-23T12:44:19;26.10;43.50
42227;DHT22;27892;52.378;13.122;2023-04-23T12:46:49;26.00;44.20
42227;DHT22;27892;52.378;13.122;2023-04-23T12:49:18;26.10;43.50
42227;DHT22;27892;52.378;13.122;2023-04-23T12:51:44;26.00;44.00
42227;DHT22;27892;52.378;13.122;2023-04-23T12:54:10;26.00;43.70
42227;DHT22;27892;52.378;13.122;2023-04-23T12:56:36;26.00;42.70
42227;DHT22;27892;52.378;13.122;2023-04-23T12:59:02;25.90;40.30
42227;DHT22;27892;52.378;13.122;2023-04-23T13:01:30;26.00;41.10
42227;DHT22;27892;52.378;13.122;2023-04-23T13:03:55;26.20;42.50
42227;DHT22;27892;52.378;13.122;2023-04-23T13:06:21;26.00;41.50
42227;DHT22;27892;52.378;13.122;2023-04-23T13:08:47;25.90;40.20
42227;DHT22;27892;52.378;13.122;2023-04-23T13:11:12;26.20;42.00
42227;DHT22;27892;52.378;13.122;2023-04-23T13:13:38;26.40;42.00
42227;DHT22;27892;52.378;13.122;2023-04-23T13:16:04;26.40;41.40
42227;DHT22;27892;52.378;13.122;2023-04-23T13:18:29;26.70;42.20
42227;DHT22;27892;52.378;13.122;2023-04-23T13:20:55;26.80;41.40
42227;DHT22;27892;52.378;13.122;2023-04-23T13:23:22;27.10;41.80
42227;DHT22;27892;52.378;13.122;2023-04-23T13:25:47;27.80;40.80
42227;DHT22;27892;52.378;13.122;2023-04-23T13:28:13;28.20;38.70
42227;DHT22;27892;52.378;13.122;2023-04-23T13:30:39;28.00;35.70
42227;DHT22;27892;52.378;13.122;2023-04-23T13:33:05;27.10;35.40
42227;DHT22;27892;52.378;13.122;2023-04-23T13:35:30;26.20;36.80
42227;DHT22;27892;52.378;13.122;2023-04-23T13:37:57;25.50;38.40
42227;DHT22;27892;52.378;13.122;2023-04-23T13:40:23;25.10;41.00
42227;DHT22;27892;52.378;13.122;2023-04-23T13:42:49;24.90;41.40
42227;DHT22;27892;52.378;13.122;2023-04-23T13:45:15;24.60;42.00
42227;DHT22;27892;52.378;13.122;2023-04-23T13:47:41;24.30;42.50
42227;DHT22;27892;52.378;13.122;2023-04-23T13:50:07;24.30;42.70
42227;DHT22;27892;52.378;13.122;2023-04-23T13:52:34;24.60;42.40
42227;DHT22;27892;52.378;13.122;2023-04-23T13:55:01;25.30;43.80
42227;DHT22;27892;52.378;13.122;2023-04-23T13:57:28;25.70;40.90
42227;DHT22;27892;52.378;13.122;2023-04-23T13:59:54;25.80;41.50
42227;DHT22;27892;52.378;13.122;2023-04-23T14:02:20;26.20;40.30
42227;DHT22;27892;52.378;13.122;2023-04-23T14:04:46;26.90;39.00
42227;DHT22;27892;52.378;13.122;2023-04-23T14:07:12;27.50;37.00
42227;DHT22;27892;52.378;13.122;2023-04-23T14:09:38;27.40;37.80
42227;DHT22;27892;52.378;13.122;2023-04-23T14:12:04;27.70;38.40
42227;DHT22;27892;52.378;13.122;2023-04-23T14:14:30;27.80;37.10
42227;DHT22;27892;52.378;13.122;2023-04-23T14:16:56;28.00;35.90
42227;DHT22;27892;52.378;13.122;2023-04-23T14:19:21;28.00;36.50
42227;DHT22;27892;52.378;13.122;2023-04-23T14:21:47;28.30;36.50
42227;DHT22;27892;52.378;13.122;2023-04-23T14:24:26;28.60;35.50
42227;DHT22;27892;52.378;13.122;2023-04-23T14:26:52;28.50;35.20
42227;DHT22;27892;52.378;13.122;2023-04-23T14:29:44;27.90;34.80
42227;DHT22;27892;52.378;13.122;2023-04-23T14:32:08;27.00;35.60
42227;DHT22;27892;52.378;13.122;2023-04-23T14:34:34;26.20;36.60
42227;DHT22;27892;52.378;13.122;2023-04-23T14:37:00;25.80;38.30
42227;DHT22;27892;52.378;13.122;2023-04-23T14:39:26;25.60;37.80
42227;DHT22;27892;52.378;13.122;2023-04-23T14:41:53;25.40;38.90
42227;DHT22;27892;52.378;13.122;2023-04-23T14:44:20;25.30;39.60
42227;DHT22;27892;52.378;13.122;2023-04-23T14:46:48;25.20;39.50
42227;DHT22;27892;52.378;13.122;2023-04-23T14:49:16;25.10;39.40
42227;DHT22;27892;52.378;13.122;2023-04-23T14:51:42;25.00;38.60
42227;DHT22;27892;52.378;13.122;2023-04-23T14:54:09;24.90;38.80
42227;DHT22;27892;52.378;13.122;2023-04-23T14:56:34;24.70;36.70
42227;DHT22;27892;52.378;13.122;2023-04-23T14:59:01;24.50;37.80
42227;DHT22;27892;52.378;13.122;2023-04-23T15:01:28;24.30;38.60
42227;DHT22;27892;52.378;13.122;2023-04-23T15:03:54;24.20;38.20
42227;DHT22;27892;52.378;13.122;2023-04-23T15:06:19;24.10;38.10
42227;DHT22;27892;52.378;13.122;2023-04-23T15:08:45;23.90;39.10
42227;DHT22;27892;52.378;13.122;2023-04-23T15:11:11;23.70;38.10
42227;DHT22;27892;52.378;13.122;2023-04-23T15:16:30;23.50;38.90
42227;DHT22;27892;52.378;13.122;2023-04-23T15:18:58;23.40;38.30
42227;DHT22;27892;52.378;13.122;2023-04-23T15:21:24;23.20;37.80
42227;DHT22;27892;52.378;13.122;2023-04-23T15:23:50;23.10;38.80
42227;DHT22;27892;52.378;13.122;2023-04-23T15:26:16;23.00;39.40